createdAt,value
2022-11-30T00:01:23.295Z,7.18
2022-11-30T00:03:54.647Z,7.20
2022-11-30T00:06:24.857Z,7.16
2022-11-30T00:08:56.752Z,7.17
2022-11-30T00:11:26.300Z,7.09
2022-11-30T00:13:53.274Z,7.13
2022-11-30T00:16:20.316Z,7.15
2022-11-30T00:18:47.209Z,7.13
2022-11-30T00:21:15.402Z,7.20
2022-11-30T00:23:45.079Z,7.21
2022-11-30T00:26:15.377Z,7.07
2022-11-30T00:28:43.793Z,7.07
2022-11-30T00:31:14.451Z,7.16
2022-11-30T00:33:41.354Z,7.03
2022-11-30T00:36:15.908Z,7.02
2022-11-30T00:38:43.344Z,6.84
2022-11-30T00:41:11.074Z,7.10
2022-11-30T00:43:37.990Z,7.03
2022-11-30T00:46:05.771Z,7.08
2022-11-30T00:48:32.831Z,7.18
2022-11-30T00:50:59.722Z,7.04
2022-11-30T00:53:26.564Z,7.14
2022-11-30T00:55:53.776Z,7.22
2022-11-30T00:58:20.718Z,7.21
2022-11-30T01:00:47.565Z,7.16
2022-11-30T01:03:14.987Z,7.18
2022-11-30T01:05:43.357Z,7.18
2022-11-30T01:08:11.937Z,7.18
2022-11-30T01:10:42.961Z,7.18
2022-11-30T01:13:14.668Z,7.12
2022-11-30T01:15:44.279Z,7.23
2022-11-30T01:18:11.923Z,7.20
2022-11-30T01:20:44.906Z,7.16
2022-11-30T01:23:11.855Z,7.14
2022-11-30T01:25:40.188Z,7.20
2022-11-30T01:28:09.695Z,7.22
2022-11-30T01:30:36.591Z,7.28
2022-11-30T01:33:04.816Z,7.18
2022-11-30T01:35:31.663Z,7.11
2022-11-30T01:37:58.504Z,7.18
2022-11-30T01:40:25.340Z,7.12
2022-11-30T01:42:52.116Z,7.16
2022-11-30T01:45:18.941Z,7.15
2022-11-30T01:47:53.930Z,7.22
2022-11-30T01:50:34.476Z,7.25
2022-11-30T01:53:03.323Z,7.17
2022-11-30T01:55:37.790Z,7.12
2022-11-30T01:58:11.597Z,7.14
2022-11-30T02:00:45.702Z,7.12
2022-11-30T02:03:24.963Z,7.16
2022-11-30T02:05:51.843Z,7.13
2022-11-30T02:08:19.651Z,7.13
2022-11-30T02:10:53.177Z,7.13
2022-11-30T02:13:50.044Z,7.12
2022-11-30T02:17:08.280Z,7.10
2022-11-30T02:19:58.268Z,7.09
2022-11-30T02:22:54.976Z,7.14
2022-11-30T02:25:52.415Z,7.21
2022-11-30T02:28:44.385Z,7.19
2022-11-30T02:31:18.469Z,7.18
2022-11-30T02:33:47.694Z,7.20
2022-11-30T02:36:14.689Z,7.21
2022-11-30T02:38:42.312Z,7.15
2022-11-30T02:41:09.151Z,7.19
2022-11-30T02:43:36.619Z,7.22
2022-11-30T02:46:22.869Z,7.25
2022-11-30T02:48:55.184Z,7.24
2022-11-30T02:51:25.281Z,7.23
2022-11-30T02:53:52.900Z,7.30
2022-11-30T02:56:22.012Z,7.30
2022-11-30T02:58:48.938Z,7.20
2022-11-30T03:01:16.188Z,7.21
2022-11-30T03:03:43.066Z,7.30
2022-11-30T03:06:09.920Z,7.32
2022-11-30T03:08:36.835Z,7.29
2022-11-30T03:11:04.935Z,7.24
2022-11-30T03:13:34.083Z,7.23
2022-11-30T03:16:09.587Z,7.27
2022-11-30T03:18:36.914Z,7.29
2022-11-30T03:21:12.081Z,7.30
2022-11-30T03:23:39.555Z,7.27
2022-11-30T03:26:08.267Z,7.24
2022-11-30T03:28:36.915Z,7.25
2022-11-30T03:31:04.349Z,7.27
2022-11-30T03:33:31.206Z,7.29
2022-11-30T03:36:07.778Z,7.24
2022-11-30T03:38:35.573Z,7.27
2022-11-30T03:41:14.127Z,7.27
2022-11-30T03:43:41.202Z,7.28
2022-11-30T03:46:09.378Z,7.20
2022-11-30T03:48:36.386Z,7.21
2022-11-30T03:51:05.034Z,7.22
2022-11-30T03:53:32.041Z,7.23
2022-11-30T03:56:02.910Z,7.25
2022-11-30T03:58:30.146Z,7.16
2022-11-30T04:01:19.332Z,7.19
2022-11-30T04:03:46.201Z,7.18
2022-11-30T04:06:13.444Z,7.18
2022-11-30T04:08:41.627Z,7.22
2022-11-30T04:11:08.961Z,7.18
2022-11-30T04:13:37.660Z,7.19
2022-11-30T04:16:05.333Z,7.16
2022-11-30T04:18:34.402Z,7.28
2022-11-30T04:21:01.894Z,7.18
2022-11-30T04:23:36.253Z,7.14
2022-11-30T04:26:05.350Z,7.12
2022-11-30T04:28:32.901Z,7.15
2022-11-30T04:31:00.977Z,7.14
2022-11-30T04:33:28.508Z,7.19
2022-11-30T04:35:59.148Z,6.99
2022-11-30T04:38:27.299Z,6.92
2022-11-30T04:40:54.427Z,6.97
2022-11-30T04:43:21.836Z,7.02
2022-11-30T04:45:49.033Z,7.04
2022-11-30T04:48:17.787Z,7.07
2022-11-30T04:50:44.911Z,7.06
2022-11-30T04:53:12.124Z,7.10
2022-11-30T04:55:39.241Z,7.18
2022-11-30T04:58:07.029Z,7.17
2022-11-30T05:00:35.130Z,7.20
2022-11-30T05:03:02.303Z,7.10
2022-11-30T05:05:29.357Z,7.07
2022-11-30T05:07:58.701Z,7.04
2022-11-30T05:10:27.688Z,7.05
2022-11-30T05:12:54.563Z,7.06
2022-11-30T05:15:21.643Z,7.05
2022-11-30T05:17:48.634Z,6.98
2022-11-30T05:20:15.736Z,7.02
2022-11-30T05:22:42.683Z,7.06
2022-11-30T05:25:09.922Z,7.09
2022-11-30T05:27:37.367Z,7.07
2022-11-30T05:30:06.074Z,7.07
2022-11-30T05:32:33.159Z,7.04
2022-11-30T05:34:59.991Z,7.09
2022-11-30T05:37:27.120Z,7.08
2022-11-30T05:39:53.892Z,7.09
2022-11-30T05:42:21.083Z,7.07
2022-11-30T05:44:48.365Z,7.04
2022-11-30T05:47:16.018Z,7.01
2022-11-30T05:49:43.026Z,7.07
2022-11-30T05:52:09.905Z,7.03
2022-11-30T05:54:36.772Z,7.02
2022-11-30T05:57:05.273Z,6.98
2022-11-30T05:59:32.286Z,6.97
2022-11-30T06:01:59.285Z,7.07
2022-11-30T06:04:26.262Z,7.04
2022-11-30T06:06:55.760Z,7.04
2022-11-30T06:09:23.251Z,7.03
2022-11-30T06:11:50.524Z,7.02
2022-11-30T06:14:17.948Z,7.03
2022-11-30T06:16:45.014Z,7.03
2022-11-30T06:19:12.012Z,7.07
2022-11-30T06:21:38.920Z,7.10
2022-11-30T06:24:06.239Z,7.08
2022-11-30T06:26:33.035Z,7.03
2022-11-30T06:28:59.856Z,7.02
2022-11-30T06:31:26.742Z,7.01
2022-11-30T06:33:57.651Z,7.04
2022-11-30T06:36:24.745Z,7.04
2022-11-30T06:38:52.397Z,7.04
2022-11-30T06:41:19.263Z,7.08
2022-11-30T06:43:46.453Z,7.04
2022-11-30T06:46:13.322Z,7.10
2022-11-30T06:48:40.289Z,7.11
2022-11-30T06:51:09.166Z,7.08
2022-11-30T06:53:36.796Z,7.12
2022-11-30T06:56:10.531Z,7.10
2022-11-30T06:58:39.795Z,7.10
2022-11-30T07:01:11.034Z,7.13
2022-11-30T07:03:38.542Z,6.98
2022-11-30T07:06:13.173Z,6.94
2022-11-30T07:08:40.657Z,6.91
2022-11-30T07:11:09.968Z,6.96
2022-11-30T07:13:37.484Z,6.96
2022-11-30T07:16:07.298Z,7.06
2022-11-30T07:18:35.245Z,7.07
2022-11-30T07:21:04.485Z,7.08
2022-11-30T07:23:55.839Z,7.02
2022-11-30T07:26:24.428Z,7.05
2022-11-30T07:28:55.187Z,6.97
2022-11-30T07:31:28.947Z,7.00
2022-11-30T07:33:58.424Z,6.90
2022-11-30T07:36:27.494Z,7.01
2022-11-30T07:38:54.816Z,7.08
2022-11-30T07:41:22.029Z,7.01
2022-11-30T07:43:48.831Z,7.07
2022-11-30T07:46:17.142Z,6.99
2022-11-30T07:48:45.226Z,7.02
2022-11-30T07:51:22.012Z,7.10
2022-11-30T07:53:49.534Z,7.14
2022-11-30T07:56:19.701Z,7.16
2022-11-30T07:58:47.583Z,7.18
2022-11-30T08:01:21.698Z,7.23
2022-11-30T08:03:50.046Z,7.22
2022-11-30T08:06:22.749Z,7.24
2022-11-30T08:08:51.911Z,7.20
2022-11-30T08:11:23.340Z,7.05
2022-11-30T08:13:50.537Z,7.13
2022-11-30T08:16:21.147Z,7.19
2022-11-30T08:18:48.573Z,7.22
2022-11-30T08:21:19.257Z,7.28
2022-11-30T08:23:51.527Z,7.18
2022-11-30T08:26:23.060Z,7.32
2022-11-30T08:28:51.547Z,7.35
2022-11-30T08:31:37.410Z,7.47
2022-11-30T08:34:09.867Z,7.52
2022-11-30T08:36:36.846Z,7.60
2022-11-30T08:39:06.060Z,7.62
2022-11-30T08:41:35.228Z,7.61
2022-11-30T08:44:02.350Z,7.67
2022-11-30T08:49:24.462Z,7.83
2022-11-30T08:54:45.394Z,7.88
2022-11-30T08:57:12.862Z,7.82
2022-11-30T08:59:39.753Z,7.63
2022-11-30T09:02:06.717Z,7.67
2022-11-30T09:04:33.661Z,7.71
2022-11-30T09:07:00.969Z,7.64
2022-11-30T09:09:28.024Z,7.63
2022-11-30T09:11:55.073Z,7.76
2022-11-30T09:14:21.921Z,7.83
2022-11-30T09:16:49.052Z,7.90
2022-11-30T09:19:16.001Z,7.91
2022-11-30T09:21:49.611Z,7.85
2022-11-30T09:24:18.452Z,7.90
2022-11-30T09:26:45.317Z,7.81
2022-11-30T09:29:12.113Z,7.83
2022-11-30T09:31:39.084Z,7.79
2022-11-30T09:34:05.892Z,7.82
2022-11-30T09:36:34.043Z,7.84
2022-11-30T09:39:01.268Z,7.68
2022-11-30T09:41:34.315Z,7.76
2022-11-30T09:44:22.956Z,7.81
2022-11-30T09:47:27.588Z,7.83
2022-11-30T09:50:02.709Z,7.89
2022-11-30T09:52:42.080Z,7.89
2022-11-30T09:55:13.302Z,7.78
2022-11-30T09:57:40.029Z,7.86
2022-11-30T10:00:15.196Z,7.93
2022-11-30T10:02:43.046Z,7.99
2022-11-30T10:05:29.513Z,8.06
2022-11-30T10:08:33.053Z,8.06
2022-11-30T10:11:09.763Z,8.15
2022-11-30T10:14:12.715Z,8.22
2022-11-30T10:17:06.528Z,8.29
2022-11-30T10:20:16.983Z,8.47
2022-11-30T10:23:04.660Z,8.53
2022-11-30T10:25:57.173Z,8.22
2022-11-30T10:28:47.768Z,8.26
2022-11-30T10:31:16.471Z,8.45
2022-11-30T10:33:47.325Z,8.29
2022-11-30T10:36:39.912Z,8.40
2022-11-30T10:39:25.026Z,8.41
2022-11-30T10:42:21.656Z,8.37
2022-11-30T10:45:18.807Z,8.32
2022-11-30T10:48:02.340Z,8.41
2022-11-30T10:50:31.461Z,8.38
2022-11-30T10:53:00.875Z,8.44
2022-11-30T10:55:36.418Z,8.31
2022-11-30T10:58:29.368Z,8.39
2022-11-30T11:01:06.829Z,8.62
2022-11-30T11:03:34.612Z,8.57
2022-11-30T11:06:23.301Z,8.45
2022-11-30T11:08:51.067Z,8.43
2022-11-30T11:11:38.650Z,8.34
2022-11-30T11:14:18.571Z,8.43
2022-11-30T11:17:04.196Z,8.57
2022-11-30T11:19:36.821Z,8.68
2022-11-30T11:22:25.932Z,8.41
2022-11-30T11:25:23.784Z,8.30
2022-11-30T11:27:54.324Z,8.50
2022-11-30T11:30:27.175Z,8.47
2022-11-30T11:33:13.408Z,8.53
2022-11-30T11:35:41.754Z,8.48
2022-11-30T11:38:23.170Z,8.33
2022-11-30T11:41:05.845Z,8.40
2022-11-30T11:43:41.140Z,8.46
2022-11-30T11:46:14.713Z,8.49
2022-11-30T11:48:49.137Z,8.62
2022-11-30T11:51:39.797Z,8.72
2022-11-30T11:54:18.236Z,8.68
2022-11-30T11:56:45.131Z,8.65
2022-11-30T11:59:47.843Z,8.70
2022-11-30T12:02:34.955Z,8.68
2022-11-30T12:05:13.213Z,8.67
2022-11-30T12:08:01.534Z,8.76
2022-11-30T12:10:54.614Z,8.71
2022-11-30T12:13:38.203Z,8.63
2022-11-30T12:16:43.338Z,8.64
2022-11-30T12:19:24.853Z,8.39
2022-11-30T12:22:09.642Z,8.55
2022-11-30T12:24:42.490Z,8.65
2022-11-30T12:27:54.530Z,8.63
2022-11-30T12:30:46.466Z,8.60
2022-11-30T12:33:30.407Z,8.66
2022-11-30T12:36:25.133Z,8.57
2022-11-30T12:39:08.216Z,8.66
2022-11-30T12:41:47.054Z,8.64
2022-11-30T12:44:35.522Z,8.62
2022-11-30T12:47:29.384Z,8.53
2022-11-30T12:50:14.123Z,8.48
2022-11-30T12:52:55.243Z,8.49
2022-11-30T12:55:44.544Z,8.54
2022-11-30T12:58:44.127Z,8.49
2022-11-30T13:01:31.764Z,8.42
2022-11-30T13:04:18.461Z,8.38
2022-11-30T13:06:53.824Z,8.14
2022-11-30T13:09:34.932Z,7.96
2022-11-30T13:12:17.386Z,7.72
2022-11-30T13:14:44.770Z,7.67
2022-11-30T13:17:19.371Z,7.93
2022-11-30T13:20:28.387Z,7.97
2022-11-30T13:23:15.049Z,7.91
2022-11-30T13:26:12.699Z,7.78
2022-11-30T13:28:42.312Z,7.87
2022-11-30T13:31:39.868Z,7.60
2022-11-30T13:34:28.332Z,7.67
2022-11-30T13:37:23.111Z,7.24
2022-11-30T13:39:56.049Z,7.44
2022-11-30T13:42:47.369Z,7.18
2022-11-30T13:45:36.429Z,7.35
2022-11-30T13:48:38.775Z,7.51
2022-11-30T13:51:06.533Z,7.39
2022-11-30T13:53:38.941Z,7.48
2022-11-30T13:56:33.695Z,7.51
2022-11-30T13:59:25.288Z,7.28
2022-11-30T14:02:13.676Z,7.39
2022-11-30T14:04:46.402Z,7.41
2022-11-30T14:07:37.719Z,7.25
2022-11-30T14:10:37.832Z,7.22
2022-11-30T14:13:24.180Z,6.94
2022-11-30T14:15:55.364Z,7.19
2022-11-30T14:18:42.431Z,7.07
2022-11-30T14:21:34.880Z,7.18
2022-11-30T14:24:12.190Z,7.28
2022-11-30T14:26:44.971Z,7.30
2022-11-30T14:29:32.158Z,7.34
2022-11-30T14:32:10.808Z,7.13
2022-11-30T14:34:50.238Z,7.27
2022-11-30T14:37:39.995Z,7.15
2022-11-30T14:40:08.023Z,7.39
2022-11-30T14:42:35.878Z,7.34
2022-11-30T14:45:03.438Z,7.33
2022-11-30T14:47:35.788Z,6.97
2022-11-30T14:50:08.071Z,7.11
2022-11-30T14:53:14.951Z,7.10
2022-11-30T14:56:08.540Z,7.09
2022-11-30T14:59:26.531Z,6.63
2022-11-30T15:02:03.950Z,6.91
2022-11-30T15:04:31.691Z,7.00
2022-11-30T15:06:59.328Z,6.81
2022-11-30T15:09:31.082Z,6.91
2022-11-30T15:11:58.813Z,6.74
2022-11-30T15:14:25.713Z,6.88
2022-11-30T15:16:55.678Z,6.86
2022-11-30T15:19:34.406Z,6.63
2022-11-30T15:22:01.441Z,6.77
2022-11-30T15:24:29.744Z,6.70
2022-11-30T15:27:10.261Z,6.58
2022-11-30T15:29:43.343Z,6.79
2022-11-30T15:32:20.310Z,6.69
2022-11-30T15:34:57.587Z,6.60
2022-11-30T15:37:39.047Z,6.55
2022-11-30T15:40:10.792Z,6.56
2022-11-30T15:42:40.308Z,6.56
2022-11-30T15:45:21.655Z,6.48
2022-11-30T15:47:49.268Z,6.49
2022-11-30T15:50:28.393Z,6.42
2022-11-30T15:53:29.727Z,6.48
2022-11-30T15:56:05.824Z,6.50
2022-11-30T15:58:48.236Z,6.47
2022-11-30T16:01:24.587Z,6.49
2022-11-30T16:04:05.545Z,6.48
2022-11-30T16:06:36.895Z,6.48
2022-11-30T16:09:20.510Z,6.50
2022-11-30T16:11:53.843Z,6.48
2022-11-30T16:14:20.714Z,6.49
2022-11-30T16:16:47.995Z,6.37
2022-11-30T16:19:14.949Z,6.46
2022-11-30T16:21:42.222Z,6.47
2022-11-30T16:24:14.358Z,6.47
2022-11-30T16:26:57.144Z,6.48
2022-11-30T16:29:23.900Z,6.53
2022-11-30T16:31:50.788Z,6.58
2022-11-30T16:34:17.708Z,6.56
2022-11-30T16:36:44.533Z,6.57
2022-11-30T16:39:12.870Z,6.55
2022-11-30T16:41:39.971Z,6.54
2022-11-30T16:44:14.150Z,6.52
2022-11-30T16:46:41.139Z,6.48
2022-11-30T16:49:08.664Z,6.47
2022-11-30T16:51:36.100Z,6.44
2022-11-30T16:54:03.803Z,6.39
2022-11-30T16:56:30.803Z,6.39
2022-11-30T16:58:57.581Z,6.43
2022-11-30T17:01:38.740Z,6.36
2022-11-30T17:04:26.485Z,6.31
2022-11-30T17:07:00.515Z,6.21
2022-11-30T17:09:30.301Z,6.12
2022-11-30T17:11:57.336Z,6.07
2022-11-30T17:14:24.203Z,6.06
2022-11-30T17:16:51.066Z,6.05
2022-11-30T17:19:18.200Z,6.02
2022-11-30T17:21:45.099Z,6.00
2022-11-30T17:24:12.341Z,5.94
2022-11-30T17:26:39.169Z,5.90
2022-11-30T17:29:06.570Z,5.85
2022-11-30T17:31:33.597Z,5.81
2022-11-30T17:34:00.517Z,5.82
2022-11-30T17:36:29.253Z,5.77
2022-11-30T17:38:56.674Z,5.75
2022-11-30T17:41:23.790Z,5.73
2022-11-30T17:43:51.972Z,5.69
2022-11-30T17:46:19.102Z,5.71
2022-11-30T17:48:46.544Z,5.71
2022-11-30T17:51:14.111Z,5.74
2022-11-30T17:53:42.820Z,5.67
2022-11-30T17:56:18.747Z,5.71
2022-11-30T17:58:47.226Z,5.71
2022-11-30T18:01:24.764Z,5.81
2022-11-30T18:03:52.991Z,5.74
2022-11-30T18:06:20.577Z,5.82
2022-11-30T18:08:47.489Z,5.87
2022-11-30T18:11:25.544Z,5.85
2022-11-30T18:13:55.699Z,5.89
2022-11-30T18:16:24.928Z,5.87
2022-11-30T18:18:52.794Z,5.86
2022-11-30T18:21:22.805Z,5.94
2022-11-30T18:23:50.687Z,5.96
2022-11-30T18:26:23.925Z,5.96
2022-11-30T18:28:56.855Z,5.92
2022-11-30T18:31:24.769Z,5.96
2022-11-30T18:33:56.975Z,6.00
2022-11-30T18:36:24.100Z,5.81
2022-11-30T18:38:50.979Z,5.92
2022-11-30T18:41:17.867Z,5.94
2022-11-30T18:43:44.855Z,5.97
2022-11-30T18:46:13.272Z,6.00
2022-11-30T18:48:41.449Z,5.97
2022-11-30T18:51:19.807Z,5.91
2022-11-30T18:53:46.963Z,5.91
2022-11-30T18:56:20.009Z,5.95
2022-11-30T18:58:48.214Z,6.01
2022-11-30T19:01:20.533Z,5.99
2022-11-30T19:03:59.087Z,6.02
2022-11-30T19:06:32.614Z,5.94
2022-11-30T19:09:08.458Z,6.01
2022-11-30T19:11:36.600Z,6.03
2022-11-30T19:14:04.365Z,5.99
2022-11-30T19:16:34.537Z,5.98
2022-11-30T19:19:05.614Z,5.99
2022-11-30T19:21:33.235Z,5.97
2022-11-30T19:24:00.481Z,5.95
2022-11-30T19:26:30.159Z,5.88
2022-11-30T19:28:57.856Z,5.84
2022-11-30T19:31:26.535Z,5.74
2022-11-30T19:33:55.378Z,5.71
2022-11-30T19:36:28.975Z,5.68
2022-11-30T19:38:58.610Z,5.70
2022-11-30T19:41:25.937Z,5.63
2022-11-30T19:44:04.165Z,5.59
2022-11-30T19:46:33.084Z,5.61
2022-11-30T19:49:01.637Z,5.61
2022-11-30T19:51:30.303Z,5.61
2022-11-30T19:53:57.554Z,5.69
2022-11-30T19:56:25.859Z,5.76
2022-11-30T19:58:53.015Z,5.81
2022-11-30T20:01:25.725Z,5.78
2022-11-30T20:03:55.357Z,5.81
2022-11-30T20:06:28.301Z,5.81
2022-11-30T20:08:58.066Z,5.75
2022-11-30T20:11:25.399Z,5.75
2022-11-30T20:13:52.446Z,5.76
2022-11-30T20:16:22.363Z,5.78
2022-11-30T20:18:56.108Z,5.69
2022-11-30T20:21:26.110Z,5.72
2022-11-30T20:23:58.291Z,5.53
2022-11-30T20:26:35.696Z,5.44
2022-11-30T20:29:05.309Z,5.41
2022-11-30T20:31:36.004Z,5.36
2022-11-30T20:34:03.337Z,5.31
2022-11-30T20:36:30.199Z,5.28
2022-11-30T20:38:59.138Z,5.20
2022-11-30T20:41:26.966Z,5.24
2022-11-30T20:43:54.401Z,5.27
2022-11-30T20:46:31.042Z,5.18
2022-11-30T20:48:59.605Z,5.28
2022-11-30T20:51:33.650Z,5.30
2022-11-30T20:54:05.876Z,5.33
2022-11-30T20:56:35.340Z,5.29
2022-11-30T20:59:06.203Z,5.22
2022-11-30T21:01:33.532Z,5.05
2022-11-30T21:04:00.807Z,5.28
2022-11-30T21:06:30.750Z,5.28
2022-11-30T21:08:58.901Z,5.39
2022-11-30T21:11:27.596Z,5.45
2022-11-30T21:13:55.083Z,5.50
2022-11-30T21:16:28.179Z,5.53
2022-11-30T21:18:58.302Z,5.47
2022-11-30T21:21:30.434Z,5.26
2022-11-30T21:24:07.588Z,5.42
2022-11-30T21:26:40.251Z,5.54
2022-11-30T21:29:19.123Z,5.57
2022-11-30T21:31:46.449Z,5.59
2022-11-30T21:34:13.492Z,5.53
2022-11-30T21:36:40.631Z,5.52
2022-11-30T21:39:08.335Z,5.52
2022-11-30T21:41:38.469Z,5.56
2022-11-30T21:44:07.830Z,5.60
2022-11-30T21:46:34.774Z,5.58
2022-11-30T21:49:02.300Z,5.60
2022-11-30T21:51:31.792Z,5.45
2022-11-30T21:54:02.836Z,5.51
2022-11-30T21:56:33.277Z,5.45
2022-11-30T21:59:00.882Z,5.41
2022-11-30T22:01:40.185Z,5.42
2022-11-30T22:04:09.235Z,5.21
2022-11-30T22:06:38.308Z,5.34
2022-11-30T22:09:11.817Z,5.21
2022-11-30T22:11:41.207Z,5.04
2022-11-30T22:14:12.754Z,5.25
2022-11-30T22:16:39.704Z,5.29
2022-11-30T22:19:07.289Z,5.30
2022-11-30T22:21:34.733Z,5.25
2022-11-30T22:24:08.033Z,5.31
2022-11-30T22:26:38.689Z,5.32
2022-11-30T22:29:11.993Z,5.41
2022-11-30T22:31:42.509Z,5.14
2022-11-30T22:34:10.105Z,5.34
2022-11-30T22:36:40.423Z,5.32
2022-11-30T22:39:12.754Z,5.42
2022-11-30T22:41:41.802Z,5.44
2022-11-30T22:44:13.139Z,5.53
2022-11-30T22:46:40.807Z,5.45
2022-11-30T22:49:10.349Z,5.53
2022-11-30T22:51:38.106Z,5.61
2022-11-30T22:54:05.744Z,5.64
2022-11-30T22:56:37.402Z,5.62
2022-11-30T22:59:06.281Z,5.59
2022-11-30T23:01:37.110Z,5.62
2022-11-30T23:04:14.093Z,5.74
2022-11-30T23:06:42.436Z,5.75
2022-11-30T23:09:14.978Z,5.77
2022-11-30T23:11:42.093Z,5.81
2022-11-30T23:14:09.799Z,5.83
2022-11-30T23:16:37.727Z,5.88
2022-11-30T23:19:05.841Z,5.84
2022-11-30T23:21:41.602Z,5.86
2022-11-30T23:24:14.434Z,5.90
2022-11-30T23:26:42.646Z,5.88
2022-11-30T23:29:13.135Z,5.85
2022-11-30T23:31:42.055Z,5.87
2022-11-30T23:34:13.648Z,5.90
2022-11-30T23:36:40.638Z,5.91
2022-11-30T23:39:17.242Z,5.94
2022-11-30T23:41:44.640Z,5.97
2022-11-30T23:44:11.546Z,5.96
2022-11-30T23:46:38.814Z,6.00
2022-11-30T23:49:06.611Z,6.04
2022-11-30T23:51:33.432Z,5.99
2022-11-30T23:54:00.341Z,5.95
2022-11-30T23:56:27.344Z,5.64
2022-11-30T23:58:54.123Z,5.63
